createdAt,value
2019-01-05T00:02:10.638Z,95.77
2019-01-05T00:05:01.651Z,97.88
2019-01-05T00:08:02.591Z,98.13
2019-01-05T00:11:03.332Z,98.33
2019-01-05T00:13:48.565Z,100.00
2019-01-05T00:16:35.782Z,100.00
2019-01-05T00:19:36.548Z,100.00
2019-01-05T00:22:23.347Z,100.00
2019-01-05T00:25:10.022Z,100.00
2019-01-05T00:27:56.126Z,100.00
2019-01-05T00:30:44.680Z,100.00
2019-01-05T00:33:28.316Z,100.00
2019-01-05T00:36:18.139Z,97.76
2019-01-05T00:39:06.379Z,99.94
2019-01-05T00:41:53.546Z,99.10
2019-01-05T00:44:52.440Z,100.00
2019-01-05T00:47:42.978Z,100.00
2019-01-05T00:50:28.819Z,100.00
2019-01-05T00:53:14.920Z,100.00
2019-01-05T00:55:56.630Z,100.00
2019-01-05T00:58:43.605Z,100.00
2019-01-05T01:01:44.273Z,100.00
2019-01-05T01:04:32.655Z,100.00
2019-01-05T01:07:29.536Z,100.00
2019-01-05T01:10:19.547Z,100.00
2019-01-05T01:13:04.847Z,100.00
2019-01-05T01:16:00.431Z,100.00
2019-01-05T01:18:44.405Z,100.00
2019-01-05T01:21:30.229Z,100.00
2019-01-05T01:24:10.228Z,100.00
2019-01-05T01:26:55.895Z,100.00
2019-01-05T01:29:41.684Z,100.00
2019-01-05T01:32:47.072Z,100.00
2019-01-05T01:35:38.384Z,100.00
2019-01-05T01:38:30.206Z,100.00
2019-01-05T01:41:16.641Z,100.00
2019-01-05T01:44:04.106Z,100.00
2019-01-05T01:47:07.617Z,100.00
2019-01-05T01:50:00.710Z,100.00
2019-01-05T01:52:59.514Z,100.00
2019-01-05T01:55:48.965Z,100.00
2019-01-05T01:58:36.122Z,100.00
2019-01-05T02:01:29.418Z,100.00
2019-01-05T02:04:15.558Z,100.00
2019-01-05T02:07:02.570Z,100.00
2019-01-05T02:09:52.209Z,100.00
2019-01-05T02:12:39.357Z,100.00
2019-01-05T02:15:32.626Z,100.00
2019-01-05T02:18:32.909Z,100.00
2019-01-05T02:22:07.279Z,100.00
2019-01-05T02:25:32.406Z,100.00
2019-01-05T02:29:20.234Z,100.00
2019-01-05T02:33:16.034Z,100.00
2019-01-05T02:36:25.810Z,100.00
2019-01-05T02:40:01.731Z,100.00
2019-01-05T02:43:07.379Z,100.00
2019-01-05T02:46:27.086Z,100.00
2019-01-05T02:49:39.269Z,100.00
2019-01-05T02:52:50.175Z,100.00
2019-01-05T02:56:15.838Z,100.00
2019-01-05T03:00:10.766Z,100.00
2019-01-05T03:04:01.767Z,100.00
2019-01-05T03:07:37.410Z,100.00
2019-01-05T03:10:41.153Z,100.00
2019-01-05T03:14:05.827Z,100.00
2019-01-05T03:17:48.374Z,100.00
2019-01-05T03:21:37.023Z,100.00
2019-01-05T03:25:06.895Z,100.00
2019-01-05T03:28:52.368Z,100.00
2019-01-05T03:32:25.196Z,100.00
2019-01-05T03:35:25.746Z,100.00
2019-01-05T03:38:41.831Z,100.00
2019-01-05T03:42:08.883Z,100.00
2019-01-05T03:45:34.425Z,100.00
2019-01-05T03:48:54.810Z,100.00
2019-01-05T03:52:31.963Z,100.00
2019-01-05T03:55:44.050Z,100.00
2019-01-05T03:58:56.194Z,100.00
2019-01-05T04:02:35.892Z,100.00
2019-01-05T04:06:08.731Z,100.00
2019-01-05T04:09:38.907Z,100.00
2019-01-05T04:13:08.870Z,100.00
2019-01-05T04:16:39.076Z,100.00
2019-01-05T04:20:18.094Z,100.00
2019-01-05T04:24:10.646Z,100.00
2019-01-05T04:27:30.544Z,100.00
2019-01-05T04:30:56.506Z,100.00
2019-01-05T04:34:31.816Z,100.00
2019-01-05T04:37:44.498Z,100.00
2019-01-05T04:41:06.800Z,100.00
2019-01-05T04:44:42.780Z,100.00
2019-01-05T04:48:09.134Z,100.00
2019-01-05T04:51:38.284Z,100.00
2019-01-05T04:54:50.932Z,100.00
2019-01-05T04:58:52.718Z,100.00
2019-01-05T05:02:27.055Z,100.00
2019-01-05T05:05:55.081Z,100.00
2019-01-05T05:09:22.858Z,100.00
2019-01-05T05:12:51.873Z,100.00
2019-01-05T05:16:47.773Z,100.00
2019-01-05T05:20:04.942Z,100.00
2019-01-05T05:23:38.314Z,100.00
2019-01-05T05:27:15.239Z,100.00
2019-01-05T05:30:40.067Z,100.00
2019-01-05T05:34:04.368Z,99.89
2019-01-05T05:37:32.616Z,99.18
2019-01-05T05:41:00.662Z,100.00
2019-01-05T05:44:37.707Z,100.00
2019-01-05T05:48:16.101Z,100.00
2019-01-05T05:51:40.947Z,100.00
2019-01-05T05:55:14.765Z,99.65
2019-01-05T05:58:55.535Z,100.00
2019-01-05T06:02:22.606Z,99.40
2019-01-05T06:05:45.767Z,98.88
2019-01-05T06:09:16.805Z,98.81
2019-01-05T06:12:54.300Z,98.82
2019-01-05T06:16:33.903Z,99.05
2019-01-05T06:19:57.138Z,96.16
2019-01-05T06:23:30.170Z,96.16
2019-01-05T06:27:21.694Z,96.21
2019-01-05T06:30:43.875Z,96.21
2019-01-05T06:34:12.009Z,98.11
2019-01-05T06:37:37.901Z,98.11
2019-01-05T06:41:21.240Z,97.65
2019-01-05T06:44:46.304Z,97.71
2019-01-05T06:48:25.002Z,98.01
2019-01-05T06:52:04.852Z,98.39
2019-01-05T06:55:11.225Z,98.13
2019-01-05T06:58:32.251Z,97.27
2019-01-05T07:02:01.506Z,96.64
2019-01-05T07:05:44.105Z,97.00
2019-01-05T07:09:06.860Z,96.79
2019-01-05T07:12:29.510Z,96.79
2019-01-05T07:16:09.770Z,96.91
2019-01-05T07:19:46.984Z,96.56
2019-01-05T07:23:15.658Z,96.52
2019-01-05T07:26:36.574Z,97.36
2019-01-05T07:30:03.315Z,95.54
2019-01-05T07:33:13.197Z,95.54
2019-01-05T07:36:33.159Z,95.79
2019-01-05T07:39:58.125Z,94.96
2019-01-05T07:43:27.554Z,95.11
2019-01-05T07:47:29.119Z,94.85
2019-01-05T07:51:01.290Z,95.58
2019-01-05T07:54:24.654Z,95.58
2019-01-05T07:58:02.652Z,95.38
2019-01-05T08:02:00.922Z,95.06
2019-01-05T08:06:03.353Z,94.75
2019-01-05T08:09:35.720Z,94.75
2019-01-05T08:13:02.454Z,94.71
2019-01-05T08:16:22.670Z,94.71
2019-01-05T08:20:05.833Z,94.77
2019-01-05T08:23:44.192Z,94.99
2019-01-05T08:27:08.550Z,95.05
2019-01-05T08:30:51.390Z,95.05
2019-01-05T08:34:17.682Z,93.85
2019-01-05T08:37:56.321Z,95.04
2019-01-05T08:41:42.414Z,95.04
2019-01-05T08:45:25.346Z,93.80
2019-01-05T08:48:58.999Z,94.57
2019-01-05T08:52:24.679Z,94.16
2019-01-05T08:55:45.226Z,94.17
2019-01-05T08:59:11.175Z,93.54
2019-01-05T09:02:52.326Z,94.03
2019-01-05T09:06:20.398Z,92.44
2019-01-05T09:09:58.922Z,92.85
2019-01-05T09:13:28.938Z,91.83
2019-01-05T09:17:18.061Z,92.80
2019-01-05T09:20:41.104Z,92.80
2019-01-05T09:24:11.308Z,92.67
2019-01-05T09:27:53.244Z,91.95
2019-01-05T09:31:24.935Z,92.51
2019-01-05T09:34:50.997Z,92.20
2019-01-05T09:38:13.430Z,92.20
2019-01-05T09:41:40.572Z,92.70
2019-01-05T09:45:21.688Z,90.11
2019-01-05T09:49:08.006Z,90.51
2019-01-05T09:52:42.364Z,90.27
2019-01-05T09:56:06.010Z,90.27
2019-01-05T09:59:48.429Z,88.44
2019-01-05T10:03:43.915Z,88.44
2019-01-05T10:07:15.115Z,89.00
2019-01-05T10:10:32.472Z,89.43
2019-01-05T10:14:05.071Z,89.65
2019-01-05T10:17:48.726Z,88.70
2019-01-05T10:21:26.819Z,88.48
2019-01-05T10:24:46.742Z,88.46
2019-01-05T10:28:13.325Z,88.09
2019-01-05T10:31:46.220Z,88.09
2019-01-05T10:35:01.352Z,88.97
2019-01-05T10:38:31.597Z,88.14
2019-01-05T10:42:07.118Z,87.55
2019-01-05T10:46:04.544Z,87.97
2019-01-05T10:49:40.008Z,87.97
2019-01-05T10:52:47.791Z,88.33
2019-01-05T10:56:09.466Z,88.02
2019-01-05T10:59:46.466Z,86.04
2019-01-05T11:03:27.612Z,86.80
2019-01-05T11:07:02.134Z,85.05
2019-01-05T11:10:38.619Z,84.54
2019-01-05T11:14:14.063Z,83.33
2019-01-05T11:17:37.820Z,82.38
2019-01-05T11:21:09.992Z,81.37
2019-01-05T11:24:52.300Z,82.85
2019-01-05T11:28:07.684Z,81.63
2019-01-05T11:31:27.796Z,80.12
2019-01-05T11:34:49.403Z,79.11
2019-01-05T11:38:25.974Z,77.86
2019-01-05T11:42:12.375Z,80.11
2019-01-05T11:45:54.380Z,80.55
2019-01-05T11:49:13.311Z,79.56
2019-01-05T11:52:58.794Z,78.81
2019-01-05T11:56:22.256Z,79.26
2019-01-05T11:59:55.938Z,78.96
2019-01-05T12:03:26.734Z,79.77
2019-01-05T12:07:05.098Z,79.08
2019-01-05T12:10:34.395Z,77.79
2019-01-05T12:14:12.061Z,78.52
2019-01-05T12:18:13.889Z,79.21
2019-01-05T12:21:50.947Z,80.30
2019-01-05T12:25:21.584Z,78.38
2019-01-05T12:29:02.997Z,77.92
2019-01-05T12:32:36.487Z,75.91
2019-01-05T12:35:59.847Z,75.96
2019-01-05T12:39:23.946Z,76.66
2019-01-05T12:42:42.786Z,74.83
2019-01-05T12:46:11.112Z,75.04
2019-01-05T12:49:37.763Z,75.25
2019-01-05T12:53:08.225Z,72.48
2019-01-05T12:56:31.760Z,66.43
2019-01-05T13:00:21.320Z,67.67
2019-01-05T13:04:19.869Z,70.34
2019-01-05T13:07:28.487Z,71.61
2019-01-05T13:10:50.777Z,70.55
2019-01-05T13:14:35.589Z,69.06
2019-01-05T13:17:44.546Z,69.77
2019-01-05T13:21:07.656Z,72.64
2019-01-05T13:24:25.066Z,71.11
2019-01-05T13:27:44.337Z,71.77
2019-01-05T13:31:32.060Z,72.30
2019-01-05T13:34:52.650Z,72.92
2019-01-05T13:38:51.830Z,72.34
2019-01-05T13:42:38.336Z,74.89
2019-01-05T13:45:55.000Z,75.63
2019-01-05T13:49:33.530Z,75.83
2019-01-05T13:53:03.031Z,76.71
2019-01-05T13:56:04.695Z,76.67
2019-01-05T13:59:09.466Z,76.99
2019-01-05T14:01:58.977Z,78.09
2019-01-05T14:04:38.505Z,78.94
2019-01-05T14:07:43.394Z,78.92
2019-01-05T14:10:24.608Z,79.71
2019-01-05T14:13:28.484Z,79.26
2019-01-05T14:16:33.716Z,79.61
2019-01-05T14:19:27.149Z,79.50
2019-01-05T14:22:21.736Z,79.19
2019-01-05T14:25:13.236Z,78.86
2019-01-05T14:27:59.174Z,78.54
2019-01-05T14:30:44.333Z,79.03
2019-01-05T14:33:29.934Z,79.25
2019-01-05T14:36:25.308Z,78.75
2019-01-05T14:39:12.660Z,78.92
2019-01-05T14:42:08.450Z,78.14
2019-01-05T14:45:16.524Z,78.14
2019-01-05T14:48:19.742Z,78.32
2019-01-05T14:51:08.976Z,79.00
2019-01-05T14:54:01.875Z,78.87
2019-01-05T14:56:54.663Z,79.03
2019-01-05T14:59:53.565Z,79.03
2019-01-05T15:02:40.737Z,78.80
2019-01-05T15:05:27.392Z,79.13
2019-01-05T15:08:14.557Z,79.32
2019-01-05T15:11:05.091Z,79.39
2019-01-05T15:13:50.587Z,79.49
2019-01-05T15:16:39.879Z,80.54
2019-01-05T15:19:26.672Z,80.35
2019-01-05T15:22:14.793Z,80.35
2019-01-05T15:25:00.153Z,81.75
2019-01-05T15:27:45.901Z,81.77
2019-01-05T15:30:36.234Z,81.75
2019-01-05T15:33:28.998Z,82.67
2019-01-05T15:36:31.383Z,82.67
2019-01-05T15:39:18.494Z,82.82
2019-01-05T15:42:12.287Z,83.54
2019-01-05T15:45:02.419Z,83.54
2019-01-05T15:47:55.385Z,83.49
2019-01-05T15:50:48.939Z,84.38
2019-01-05T15:53:29.247Z,84.38
2019-01-05T15:56:24.510Z,83.99
2019-01-05T15:59:15.812Z,84.37
2019-01-05T16:02:02.464Z,83.63
2019-01-05T16:04:54.960Z,82.76
2019-01-05T16:07:50.478Z,82.76
2019-01-05T16:10:39.939Z,82.91
2019-01-05T16:13:29.674Z,82.91
2019-01-05T16:16:19.129Z,83.57
2019-01-05T16:19:11.725Z,84.79
2019-01-05T16:22:04.341Z,85.12
2019-01-05T16:24:52.740Z,85.12
2019-01-05T16:27:39.430Z,85.33
2019-01-05T16:30:38.423Z,86.36
2019-01-05T16:33:25.095Z,87.23
2019-01-05T16:36:10.706Z,88.22
2019-01-05T16:39:09.118Z,88.85
2019-01-05T16:42:03.831Z,87.73
2019-01-05T16:44:48.939Z,87.73
2019-01-05T16:47:31.606Z,87.16
2019-01-05T16:50:24.712Z,86.10
2019-01-05T16:53:10.543Z,86.10
2019-01-05T16:56:00.217Z,85.72
2019-01-05T16:58:50.247Z,85.64
2019-01-05T17:01:35.618Z,85.64
2019-01-05T17:04:29.118Z,85.12
2019-01-05T17:07:22.190Z,85.57
2019-01-05T17:10:02.595Z,85.52
2019-01-05T17:13:07.517Z,85.52
2019-01-05T17:15:52.926Z,84.56
2019-01-05T17:18:38.458Z,85.56
2019-01-05T17:21:33.023Z,84.90
2019-01-05T17:24:15.851Z,84.90
2019-01-05T17:27:14.696Z,85.36
2019-01-05T17:30:07.558Z,84.85
2019-01-05T17:33:10.046Z,84.66
2019-01-05T17:35:59.691Z,84.66
2019-01-05T17:38:46.760Z,84.65
2019-01-05T17:41:33.331Z,84.65
2019-01-05T17:44:20.122Z,84.93
2019-01-05T17:47:13.569Z,83.66
2019-01-05T17:50:00.230Z,83.67
2019-01-05T17:52:45.916Z,82.22
2019-01-05T17:55:35.337Z,83.13
2019-01-05T17:58:26.517Z,83.13
2019-01-05T18:01:06.227Z,84.16
2019-01-05T18:04:15.482Z,84.30
2019-01-05T18:07:22.235Z,84.94
2019-01-05T18:10:11.497Z,84.50
2019-01-05T18:12:59.236Z,84.50
2019-01-05T18:15:51.841Z,84.98
2019-01-05T18:18:38.159Z,86.06
2019-01-05T18:21:32.916Z,86.06
2019-01-05T18:24:22.801Z,85.81
2019-01-05T18:27:05.704Z,85.47
2019-01-05T18:30:07.491Z,85.82
2019-01-05T18:33:01.226Z,85.82
2019-01-05T18:36:02.949Z,86.17
2019-01-05T18:38:38.503Z,86.42
2019-01-05T18:41:40.275Z,87.75
2019-01-05T18:44:27.358Z,86.66
2019-01-05T18:47:26.064Z,86.66
2019-01-05T18:50:05.049Z,87.15
2019-01-05T18:52:52.655Z,85.88
2019-01-05T18:55:38.772Z,84.71
2019-01-05T18:58:32.712Z,84.71
2019-01-05T19:01:19.235Z,87.13
2019-01-05T19:04:04.425Z,86.98
2019-01-05T19:06:56.611Z,86.98
2019-01-05T19:09:42.219Z,87.29
2019-01-05T19:12:28.876Z,87.24
2019-01-05T19:15:27.572Z,87.20
2019-01-05T19:18:12.830Z,87.82
2019-01-05T19:21:05.061Z,87.96
2019-01-05T19:23:56.492Z,87.96
2019-01-05T19:26:53.090Z,87.96
2019-01-05T19:29:38.786Z,89.18
2019-01-05T19:32:24.092Z,90.39
2019-01-05T19:35:05.675Z,90.39
2019-01-05T19:37:51.673Z,90.28
2019-01-05T19:40:56.880Z,90.28
2019-01-05T19:43:42.295Z,90.49
2019-01-05T19:46:35.036Z,91.41
2019-01-05T19:49:25.405Z,90.81
2019-01-05T19:52:23.544Z,91.31
2019-01-05T19:55:09.366Z,91.77
2019-01-05T19:58:15.366Z,91.77
2019-01-05T20:01:05.058Z,92.63
2019-01-05T20:03:50.496Z,93.93
2019-01-05T20:06:44.490Z,93.91
2019-01-05T20:09:30.226Z,93.51
2019-01-05T20:12:15.264Z,94.12
2019-01-05T20:15:01.004Z,94.59
2019-01-05T20:18:00.014Z,95.48
2019-01-05T20:20:44.702Z,95.37
2019-01-05T20:23:26.617Z,95.58
2019-01-05T20:26:29.698Z,95.64
2019-01-05T20:29:17.130Z,95.38
2019-01-05T20:32:09.884Z,95.79
2019-01-05T20:35:17.465Z,96.17
2019-01-05T20:37:56.356Z,95.77
2019-01-05T20:40:42.807Z,95.73
2019-01-05T20:43:28.587Z,96.24
2019-01-05T20:46:21.570Z,96.90
2019-01-05T20:49:08.708Z,96.53
2019-01-05T20:51:55.540Z,97.15
2019-01-05T20:54:47.799Z,97.29
2019-01-05T20:57:32.991Z,97.17
2019-01-05T21:00:19.290Z,97.37
2019-01-05T21:03:17.263Z,97.59
2019-01-05T21:06:07.270Z,97.05
2019-01-05T21:09:03.591Z,97.18
2019-01-05T21:11:57.075Z,97.66
2019-01-05T21:14:44.670Z,98.25
2019-01-05T21:17:49.554Z,97.89
2019-01-05T21:20:29.463Z,98.39
2019-01-05T21:23:12.509Z,97.98
2019-01-05T21:25:58.146Z,98.02
2019-01-05T21:28:43.371Z,98.56
2019-01-05T21:31:39.327Z,98.35
2019-01-05T21:34:30.572Z,98.65
2019-01-05T21:37:13.643Z,97.87
2019-01-05T21:40:00.490Z,99.23
2019-01-05T21:42:45.678Z,98.65
2019-01-05T21:45:33.758Z,98.51
2019-01-05T21:48:19.090Z,99.23
2019-01-05T21:51:04.940Z,98.76
2019-01-05T21:54:04.788Z,99.02
2019-01-05T21:56:51.487Z,98.47
2019-01-05T21:59:50.219Z,99.42
2019-01-05T22:02:39.910Z,99.06
2019-01-05T22:05:27.524Z,99.46
2019-01-05T22:08:13.275Z,99.01
2019-01-05T22:10:57.244Z,99.46
2019-01-05T22:13:46.865Z,100.00
2019-01-05T22:16:44.578Z,99.54
2019-01-05T22:19:31.362Z,99.20
2019-01-05T22:22:21.374Z,99.67
2019-01-05T22:25:26.785Z,99.25
2019-01-05T22:28:16.249Z,99.11
2019-01-05T22:31:03.530Z,99.98
2019-01-05T22:33:48.607Z,99.73
2019-01-05T22:36:29.003Z,100.00
2019-01-05T22:39:14.695Z,99.94
2019-01-05T22:42:13.252Z,99.83
2019-01-05T22:45:12.701Z,100.00
2019-01-05T22:47:57.064Z,99.75
2019-01-05T22:50:39.584Z,99.24
2019-01-05T22:53:24.851Z,99.75
2019-01-05T22:56:11.549Z,100.00
2019-01-05T22:58:56.842Z,100.00
2019-01-05T23:01:55.179Z,99.50
2019-01-05T23:04:53.336Z,99.55
2019-01-05T23:07:42.669Z,99.80
2019-01-05T23:10:21.130Z,99.90
2019-01-05T23:13:08.136Z,99.98
2019-01-05T23:15:55.925Z,99.72
2019-01-05T23:18:41.762Z,99.64
2019-01-05T23:21:43.255Z,100.00
2019-01-05T23:24:48.562Z,99.84
2019-01-05T23:27:38.275Z,100.00
2019-01-05T23:30:26.381Z,100.00
2019-01-05T23:33:18.934Z,100.00
2019-01-05T23:36:17.974Z,100.00
2019-01-05T23:38:58.662Z,100.00
2019-01-05T23:41:45.469Z,100.00
2019-01-05T23:44:40.358Z,100.00
2019-01-05T23:47:28.692Z,100.00
2019-01-05T23:50:15.363Z,100.00
2019-01-05T23:53:04.856Z,100.00
2019-01-05T23:55:50.981Z,100.00
2019-01-05T23:58:44.707Z,100.00
